Observations for LEEDS AND BRADFORD, United Kingdom (EGNM)

EGNM 180250Z 22003KT CAVOK 03/01 Q1020  
EGNM 180220Z 26005KT 190V270 CAVOK 03/01 Q1020  
EGNM 180150Z 26004KT 190V270 CAVOK 03/02 Q1020  
EGNM 180120Z 24004KT CAVOK 03/02 Q1020  
EGNM 180050Z 25006KT CAVOK 04/01 Q1020  
EGNM 180020Z 26005KT CAVOK 03/01 Q1020  
EGNM 172350Z 25005KT 190V290 CAVOK 04/02 Q1020  
EGNM 172320Z 23004KT CAVOK 03/01 Q1020  
EGNM 172250Z 22005KT CAVOK 03/01 Q1020  
EGNM 172220Z 20003KT CAVOK 04/02 Q1020  
EGNM 172150Z VRB03KT 9999 FEW041 04/02 Q1020
EGNM 172120Z 23003KT 9999 FEW030 04/02 Q1020
EGNM 172050Z VRB03KT 9999 FEW032 04/02 Q1020
EGNM 172020Z 22004KT 9999 SCT028 04/02 Q1020
EGNM 171950Z 24002KT 9999 SCT028 05/02 Q1020
EGNM 171920Z VRB01KT 9999 SCT030 04/02 Q1020
EGNM 171850Z 21002KT 9999 SCT030 06/02 Q1020
EGNM 171820Z 24005KT 9999 SCT028 05/01 Q1019
EGNM 171750Z 23005KT 9999 FEW020 05/02 Q1019
EGNM 171720Z 25004KT 9999 FEW020 06/02 Q1019
EGNM 171650Z 26004KT 210V350 9999 FEW020 SCT030 06/02 Q1019 
EGNM 171620Z 25007KT 190V280 9999 SCT022 07/02 Q1019
EGNM 171550Z VRB02KT 9999 SCT021 07/03 Q1018
EGNM 171520Z 23004KT 190V260 9999 SCT023 07/03 Q1018
EGNM 171450Z 18005KT 150V230 9999 SCT022 07/04 Q1018
EGNM 171420Z VRB03KT 9999 FEW018 BKN024 06/03 Q1018 
EGNM 171350Z 21005KT 9999 SCT016 BKN027 06/03 Q1019 
EGNM 171320Z 22007KT 200V270 9999 SCT011 SCT024 05/03 Q1019 
EGNM 171250Z 23006KT 200V260 9999 FEW008 BKN011 05/04 Q1019 
EGNM 171220Z 23008KT 9999 FEW008 BKN011 05/03 Q1019 
EGNM 171150Z 24006KT 190V290 9999 FEW009 BKN011 05/03 Q1018 
EGNM 171120Z 22007KT 180V280 9999 -RADZ FEW008 BKN010 05/03 Q1018   
EGNM 171050Z 21006KT 170V260 9999 -DZRA FEW008 BKN010 04/03 Q1018   
EGNM 171020Z 18004KT 140V230 9999 -RA BKN010 04/02 Q1018
EGNM 170950Z 20004KT 160V230 9999 -RA BKN013 03/02 Q1018
EGNM 170920Z 19006KT 160V230 9999 -RA SCT012 BKN018 03/02 Q1018 
EGNM 170850Z 19007KT 150V230 9999 -RA SCT012 BKN018 03/01 Q1018 
EGNM 170820Z 21004KT 180V240 9999 SCT016 BKN025 03/01 Q1018 
EGNM 170750Z 21006KT 180V240 9999 FEW015 BKN031 03/01 Q1018 
EGNM 170720Z 21008KT 180V240 9999 FEW014 BKN021 03/01 Q1018 
EGNM 170650Z 19006KT 160V230 9999 SCT014 BKN039 03/01 Q1018 
EGNM 170620Z 21008KT 170V250 9999 -RA SCT019 BKN047 04/01 Q1018 
EGNM 170550Z 20007KT 170V240 9999 SCT019 BKN047 04/01 Q1018 
EGNM 170520Z 20007KT 160V240 9999 BKN018 04/01 Q1018
EGNM 170450Z 20006KT 180V240 CAVOK 04/01 Q1018  
EGNM 170420Z 19005KT 9999 FEW030 04/01 Q1018
EGNM 170350Z 19006KT 160V220 9999 SCT030 04/01 Q1018
EGNM 170320Z 18006KT 9999 SCT030 03/01 Q1018
EGNM 170250Z 20006KT 160V240 CAVOK 04/01 Q1018  
EGNM 170220Z 20007KT CAVOK 03/01 Q1019